createdAt,value
2022-12-12T00:01:53.441Z,12.32
2022-12-12T00:04:20.286Z,9.38
2022-12-12T00:06:47.352Z,12.00
2022-12-12T00:09:14.272Z,14.20
2022-12-12T00:11:41.220Z,12.73
2022-12-12T00:14:08.371Z,11.88
2022-12-12T00:16:35.314Z,12.05
2022-12-12T00:19:02.187Z,14.48
2022-12-12T00:21:29.485Z,15.35
2022-12-12T00:23:56.587Z,10.65
2022-12-12T00:26:29.328Z,12.43
2022-12-12T00:28:56.432Z,12.85
2022-12-12T00:31:23.422Z,12.43
2022-12-12T00:33:51.308Z,11.00
2022-12-12T00:36:19.110Z,12.25
2022-12-12T00:38:46.078Z,12.98
2022-12-12T00:41:12.959Z,10.02
2022-12-12T00:43:39.935Z,14.52
2022-12-12T00:46:06.845Z,13.35
2022-12-12T00:48:33.782Z,13.63
2022-12-12T00:51:06.400Z,12.48
2022-12-12T00:53:33.325Z,11.38
2022-12-12T00:56:00.217Z,11.63
2022-12-12T00:58:27.462Z,13.45
2022-12-12T01:00:54.529Z,13.43
2022-12-12T01:03:21.808Z,10.48
2022-12-12T01:05:48.956Z,13.07
2022-12-12T01:08:15.956Z,17.25
2022-12-12T01:10:42.924Z,13.60
2022-12-12T01:13:09.925Z,15.63
2022-12-12T01:15:36.899Z,14.48
2022-12-12T01:18:03.900Z,11.85
2022-12-12T01:20:30.955Z,13.52
2022-12-12T01:22:57.830Z,11.73
2022-12-12T01:25:24.806Z,12.07
2022-12-12T01:27:51.751Z,12.13
2022-12-12T01:30:19.901Z,13.23
2022-12-12T01:32:46.815Z,12.77
2022-12-12T01:35:14.009Z,10.80
2022-12-12T01:37:41.647Z,11.75
2022-12-12T01:40:12.373Z,10.55
2022-12-12T01:42:39.289Z,12.55
2022-12-12T01:45:06.724Z,10.77
2022-12-12T01:47:33.645Z,12.30
2022-12-12T01:50:06.285Z,9.65
2022-12-12T01:52:37.632Z,12.57
2022-12-12T01:55:05.697Z,10.38
2022-12-12T01:57:34.767Z,11.45
2022-12-12T02:00:01.817Z,10.18
2022-12-12T02:02:31.662Z,9.43
2022-12-12T02:05:00.167Z,8.90
2022-12-12T02:07:27.058Z,9.98
2022-12-12T02:09:54.025Z,8.95
2022-12-12T02:12:20.917Z,10.70
2022-12-12T02:14:49.551Z,7.82
2022-12-12T02:17:24.331Z,10.43
2022-12-12T02:19:57.141Z,12.57
2022-12-12T02:22:42.997Z,9.40
2022-12-12T02:25:16.064Z,9.82
2022-12-12T02:28:01.742Z,9.10
2022-12-12T02:31:02.907Z,8.25
2022-12-12T02:33:44.865Z,11.00
2022-12-12T02:36:13.897Z,9.10
2022-12-12T02:38:45.449Z,11.18
2022-12-12T02:41:40.135Z,13.35
2022-12-12T02:44:48.138Z,10.63
2022-12-12T02:47:30.280Z,10.38
2022-12-12T02:50:22.904Z,10.75
2022-12-12T02:52:49.937Z,10.15
2022-12-12T02:55:17.221Z,12.27
2022-12-12T02:57:44.418Z,10.40
2022-12-12T03:00:17.579Z,11.00
2022-12-12T03:02:53.394Z,11.55
2022-12-12T03:06:02.157Z,8.32
2022-12-12T03:08:35.089Z,10.95
2022-12-12T03:11:11.213Z,13.10
2022-12-12T03:13:57.186Z,10.43
2022-12-12T03:16:48.159Z,8.82
2022-12-12T03:19:40.724Z,12.00
2022-12-12T03:22:11.807Z,9.32
2022-12-12T03:24:49.402Z,11.32
2022-12-12T03:27:24.896Z,10.63
2022-12-12T03:30:06.827Z,10.57
2022-12-12T03:32:49.357Z,9.75
2022-12-12T03:35:36.371Z,10.73
2022-12-12T03:38:25.214Z,11.93
2022-12-12T03:40:59.110Z,12.50
2022-12-12T03:43:47.167Z,13.90
2022-12-12T03:46:22.818Z,11.05
2022-12-12T03:48:54.611Z,11.77
2022-12-12T03:51:37.333Z,11.43
2022-12-12T03:54:43.899Z,12.05
2022-12-12T03:57:22.914Z,10.02
2022-12-12T03:59:53.547Z,12.60
2022-12-12T04:02:32.531Z,10.55
2022-12-12T04:05:11.950Z,14.05
2022-12-12T04:07:44.363Z,12.07
2022-12-12T04:10:29.908Z,11.13
2022-12-12T04:13:09.074Z,11.02
2022-12-12T04:15:48.579Z,13.80
2022-12-12T04:18:43.285Z,14.20
2022-12-12T04:21:36.119Z,13.13
2022-12-12T04:24:14.611Z,16.05
2022-12-12T04:27:24.601Z,12.63
2022-12-12T04:29:51.461Z,12.82
2022-12-12T04:32:34.555Z,11.98
2022-12-12T04:35:10.337Z,12.70
2022-12-12T04:37:49.612Z,12.98
2022-12-12T04:40:22.809Z,13.23
2022-12-12T04:43:01.405Z,14.85
2022-12-12T04:45:30.924Z,14.25
2022-12-12T04:47:57.892Z,17.58
2022-12-12T04:50:25.752Z,17.92
2022-12-12T04:52:52.908Z,14.70
2022-12-12T04:55:23.123Z,14.75
2022-12-12T04:57:51.779Z,16.88
2022-12-12T05:00:20.267Z,14.63
2022-12-12T05:02:53.191Z,14.52
2022-12-12T05:05:53.770Z,16.25
2022-12-12T05:08:30.449Z,12.88
2022-12-12T05:11:00.232Z,17.02
2022-12-12T05:13:32.980Z,16.98
2022-12-12T05:16:00.600Z,13.57
2022-12-12T05:18:27.595Z,11.88
2022-12-12T05:20:54.549Z,15.82
2022-12-12T05:23:21.449Z,13.38
2022-12-12T05:25:48.444Z,15.07
2022-12-12T05:28:15.386Z,12.45
2022-12-12T05:30:42.468Z,14.75
2022-12-12T05:33:09.488Z,14.93
2022-12-12T05:35:36.808Z,20.27
2022-12-12T05:38:03.873Z,19.08
2022-12-12T05:40:31.013Z,19.25
2022-12-12T05:42:58.049Z,19.08
2022-12-12T05:45:24.961Z,15.55
2022-12-12T05:47:51.921Z,15.98
2022-12-12T05:50:18.900Z,16.77
2022-12-12T05:52:45.838Z,15.93
2022-12-12T05:55:12.874Z,21.80
2022-12-12T05:57:39.935Z,17.98
2022-12-12T06:00:08.001Z,16.42
2022-12-12T06:02:34.997Z,16.10
2022-12-12T06:05:02.038Z,15.73
2022-12-12T06:07:29.192Z,19.58
2022-12-12T06:09:56.171Z,15.00
2022-12-12T06:12:23.189Z,13.90
2022-12-12T06:14:50.171Z,16.30
2022-12-12T06:17:17.037Z,15.45
2022-12-12T06:19:43.973Z,15.68
2022-12-12T06:22:10.934Z,16.63
2022-12-12T06:24:37.899Z,17.73
2022-12-12T06:27:04.765Z,15.60
2022-12-12T06:29:31.983Z,16.85
2022-12-12T06:31:58.897Z,21.70
2022-12-12T06:34:25.997Z,15.63
2022-12-12T06:36:52.856Z,17.20
2022-12-12T06:39:19.812Z,17.20
2022-12-12T06:41:46.698Z,20.35
2022-12-12T06:44:13.569Z,18.58
2022-12-12T06:46:40.545Z,17.60
2022-12-12T06:49:09.979Z,18.02
2022-12-12T06:51:40.995Z,21.77
2022-12-12T06:54:07.870Z,22.45
2022-12-12T06:56:34.779Z,16.90
2022-12-12T06:59:01.734Z,21.25
2022-12-12T07:01:28.655Z,20.75
2022-12-12T07:03:55.639Z,20.05
2022-12-12T07:06:23.456Z,16.40
2022-12-12T07:08:50.645Z,20.67
2022-12-12T07:11:20.011Z,21.58
2022-12-12T07:13:47.046Z,14.05
2022-12-12T07:16:14.084Z,20.48
2022-12-12T07:18:41.169Z,21.48
2022-12-12T07:21:09.081Z,18.40
2022-12-12T07:23:36.035Z,28.27
2022-12-12T07:26:07.155Z,20.08
2022-12-12T07:28:34.151Z,24.27
2022-12-12T07:31:05.577Z,21.60
2022-12-12T07:33:42.601Z,28.30
2022-12-12T07:36:11.086Z,22.25
2022-12-12T07:38:38.165Z,21.75
2022-12-12T07:41:06.380Z,17.08
2022-12-12T07:43:38.545Z,18.85
2022-12-12T07:46:11.397Z,20.90
2022-12-12T07:48:38.318Z,21.92
2022-12-12T07:51:05.426Z,21.73
2022-12-12T07:53:32.343Z,17.65
2022-12-12T07:55:59.284Z,19.20
2022-12-12T07:58:26.237Z,24.38
2022-12-12T08:00:53.255Z,19.08
2022-12-12T08:03:20.229Z,16.65
2022-12-12T08:05:47.235Z,20.75
2022-12-12T08:08:14.173Z,21.52
2022-12-12T08:10:41.286Z,23.27
2022-12-12T08:13:08.459Z,19.80
2022-12-12T08:15:35.453Z,19.55
2022-12-12T08:18:02.342Z,25.83
2022-12-12T08:20:29.405Z,15.90
2022-12-12T08:22:56.304Z,28.95
2022-12-12T08:25:23.274Z,22.60
2022-12-12T08:27:50.162Z,23.90
2022-12-12T08:30:17.104Z,17.92
2022-12-12T08:32:44.012Z,20.60
2022-12-12T08:35:11.143Z,21.15
2022-12-12T08:37:38.423Z,23.27
2022-12-12T08:40:06.067Z,22.10
2022-12-12T08:42:32.945Z,25.15
2022-12-12T08:45:00.335Z,23.88
2022-12-12T08:47:27.429Z,19.70
2022-12-12T08:49:56.975Z,20.77
2022-12-12T08:52:23.875Z,20.77
2022-12-12T08:54:50.871Z,17.55
2022-12-12T08:57:25.622Z,22.58
2022-12-12T08:59:52.886Z,17.13
2022-12-12T09:02:19.931Z,18.58
2022-12-12T09:04:46.994Z,15.98
2022-12-12T09:07:14.069Z,23.10
2022-12-12T09:09:41.133Z,18.65
2022-12-12T09:12:08.479Z,18.05
2022-12-12T09:14:35.476Z,20.85
2022-12-12T09:17:02.412Z,26.48
2022-12-12T09:19:29.366Z,24.55
2022-12-12T09:21:56.313Z,22.98
2022-12-12T09:24:25.572Z,20.08
2022-12-12T09:26:52.536Z,18.85
2022-12-12T09:29:19.501Z,22.63
2022-12-12T09:31:47.027Z,19.20
2022-12-12T09:34:14.228Z,26.02
2022-12-12T09:36:41.176Z,20.00
2022-12-12T09:39:08.048Z,18.95
2022-12-12T09:41:35.012Z,16.90
2022-12-12T09:44:18.827Z,20.08
2022-12-12T09:46:55.661Z,22.95
2022-12-12T09:49:46.951Z,25.30
2022-12-12T09:52:35.112Z,20.48
2022-12-12T09:55:23.059Z,17.90
2022-12-12T09:57:59.101Z,20.17
2022-12-12T10:00:26.221Z,17.70
2022-12-12T10:03:05.466Z,23.08
2022-12-12T10:05:41.578Z,19.05
2022-12-12T10:08:19.043Z,18.67
2022-12-12T10:10:48.521Z,17.25
2022-12-12T10:13:23.687Z,25.67
2022-12-12T10:15:52.882Z,21.05
2022-12-12T10:18:32.306Z,26.23
2022-12-12T10:21:04.742Z,21.13
2022-12-12T10:23:51.080Z,26.55
2022-12-12T10:26:25.808Z,22.17
2022-12-12T10:28:54.196Z,20.45
2022-12-12T10:31:51.996Z,23.70
2022-12-12T10:34:34.069Z,21.63
2022-12-12T10:37:15.209Z,17.60
2022-12-12T10:40:03.866Z,20.17
2022-12-12T10:42:38.803Z,18.65
2022-12-12T10:45:25.897Z,18.45
2022-12-12T10:47:52.910Z,21.58
2022-12-12T10:50:19.721Z,19.80
2022-12-12T10:52:46.613Z,18.38
2022-12-12T10:55:33.167Z,21.70
2022-12-12T10:58:04.419Z,25.23
2022-12-12T11:00:39.158Z,24.08
2022-12-12T11:03:28.326Z,22.65
2022-12-12T11:05:56.151Z,25.38
2022-12-12T11:08:31.037Z,26.25
2022-12-12T11:11:07.193Z,22.55
2022-12-12T11:13:51.415Z,23.58
2022-12-12T11:16:29.153Z,18.90
2022-12-12T11:19:33.002Z,16.90
2022-12-12T11:21:59.949Z,19.85
2022-12-12T11:24:44.681Z,23.92
2022-12-12T11:27:20.447Z,23.73
2022-12-12T11:29:48.464Z,20.98
2022-12-12T11:32:20.018Z,18.73
2022-12-12T11:34:51.766Z,22.98
2022-12-12T11:37:23.462Z,18.05
2022-12-12T11:39:51.991Z,36.40
2022-12-12T11:42:29.548Z,25.58
2022-12-12T11:45:04.900Z,17.35
2022-12-12T11:47:38.858Z,16.10
2022-12-12T11:50:25.994Z,14.98
2022-12-12T11:52:58.959Z,18.55
2022-12-12T11:55:44.740Z,23.23
2022-12-12T11:58:28.274Z,22.42
2022-12-12T12:03:51.361Z,17.05
2022-12-12T12:06:41.517Z,20.48
2022-12-12T12:09:08.385Z,17.45
2022-12-12T12:11:41.345Z,18.52
2022-12-12T12:14:27.144Z,29.65
2022-12-12T12:17:27.192Z,23.98
2022-12-12T12:19:54.075Z,16.70
2022-12-12T12:22:58.301Z,17.88
2022-12-12T12:25:34.383Z,17.58
2022-12-12T12:28:33.836Z,23.90
2022-12-12T12:31:17.017Z,21.15
2022-12-12T12:33:53.131Z,19.23
2022-12-12T12:36:49.237Z,17.00
2022-12-12T12:39:27.538Z,20.63
2022-12-12T12:42:33.049Z,17.77
2022-12-12T12:45:23.899Z,15.82
2022-12-12T12:48:19.104Z,18.92
2022-12-12T12:51:09.261Z,15.40
2022-12-12T12:53:57.741Z,19.45
2022-12-12T12:56:32.415Z,16.27
2022-12-12T12:59:04.532Z,17.73
2022-12-12T13:01:39.313Z,18.08
2022-12-12T13:04:12.025Z,16.98
2022-12-12T13:06:49.405Z,20.23
2022-12-12T13:09:42.064Z,24.40
2022-12-12T13:12:17.203Z,20.20
2022-12-12T13:15:27.142Z,19.92
2022-12-12T13:18:04.956Z,17.25
2022-12-12T13:20:59.221Z,19.15
2022-12-12T13:23:32.151Z,19.45
2022-12-12T13:26:12.636Z,24.30
2022-12-12T13:28:48.151Z,15.85
2022-12-12T13:31:21.017Z,16.02
2022-12-12T13:33:51.997Z,13.33
2022-12-12T13:36:30.234Z,13.68
2022-12-12T13:39:01.676Z,15.48
2022-12-12T13:41:54.720Z,18.85
2022-12-12T13:44:35.611Z,17.02
2022-12-12T13:47:04.158Z,15.80
2022-12-12T13:49:40.277Z,18.42
2022-12-12T13:52:25.615Z,17.75
2022-12-12T13:55:11.321Z,21.17
2022-12-12T13:58:06.043Z,20.05
2022-12-12T14:00:36.687Z,20.70
2022-12-12T14:03:09.924Z,16.33
2022-12-12T14:05:42.438Z,12.35
2022-12-12T14:08:12.486Z,16.25
2022-12-12T14:10:45.461Z,11.98
2022-12-12T14:13:21.617Z,16.60
2022-12-12T14:16:14.915Z,16.65
2022-12-12T14:19:20.337Z,17.60
2022-12-12T14:21:47.837Z,17.23
2022-12-12T14:24:33.073Z,21.98
2022-12-12T14:27:00.985Z,17.45
2022-12-12T14:29:29.116Z,18.40
2022-12-12T14:32:10.951Z,14.23
2022-12-12T14:34:57.263Z,21.77
2022-12-12T14:37:39.044Z,15.45
2022-12-12T14:40:09.206Z,13.23
2022-12-12T14:43:18.714Z,27.15
2022-12-12T14:45:51.571Z,20.92
2022-12-12T14:48:29.113Z,17.00
2022-12-12T14:51:05.727Z,15.63
2022-12-12T14:53:44.218Z,19.98
2022-12-12T14:56:15.118Z,16.17
2022-12-12T14:58:54.309Z,22.67
2022-12-12T15:01:33.120Z,24.95
2022-12-12T15:04:00.317Z,19.88
2022-12-12T15:06:29.403Z,22.80
2022-12-12T15:08:58.338Z,23.40
2022-12-12T15:11:26.991Z,22.13
2022-12-12T15:13:55.625Z,31.05
2022-12-12T15:16:42.808Z,23.20
2022-12-12T15:19:15.416Z,22.60
2022-12-12T15:21:45.757Z,28.27
2022-12-12T15:24:23.468Z,31.23
2022-12-12T15:26:52.201Z,26.08
2022-12-12T15:29:21.177Z,26.17
2022-12-12T15:31:48.394Z,28.85
2022-12-12T15:34:34.266Z,28.00
2022-12-12T15:37:24.154Z,27.13
2022-12-12T15:40:06.751Z,22.88
2022-12-12T15:42:33.723Z,30.17
2022-12-12T15:45:01.018Z,20.73
2022-12-12T15:47:28.012Z,21.02
2022-12-12T15:49:55.135Z,27.05
2022-12-12T15:52:25.969Z,30.38
2022-12-12T15:54:54.960Z,24.15
2022-12-12T15:57:26.930Z,21.52
2022-12-12T16:00:02.320Z,16.15
2022-12-12T16:02:32.819Z,18.35
2022-12-12T16:05:24.054Z,17.70
2022-12-12T16:07:51.015Z,17.15
2022-12-12T16:10:17.825Z,20.35
2022-12-12T16:12:58.163Z,17.70
2022-12-12T16:15:37.921Z,16.88
2022-12-12T16:18:15.357Z,16.25
2022-12-12T16:20:47.514Z,20.35
2022-12-12T16:23:23.238Z,21.67
2022-12-12T16:25:50.375Z,23.45
2022-12-12T16:28:25.767Z,18.90
2022-12-12T16:31:00.767Z,16.17
2022-12-12T16:33:38.062Z,16.15
2022-12-12T16:36:11.655Z,17.38
2022-12-12T16:38:40.282Z,15.73
2022-12-12T16:41:09.128Z,19.58
2022-12-12T16:43:36.132Z,19.67
2022-12-12T16:46:06.408Z,24.75
2022-12-12T16:48:34.948Z,16.17
2022-12-12T16:51:05.137Z,21.20
2022-12-12T16:53:32.542Z,19.05
2022-12-12T16:56:01.414Z,14.25
2022-12-12T16:58:28.567Z,22.73
2022-12-12T17:00:55.748Z,15.18
2022-12-12T17:03:23.687Z,18.80
2022-12-12T17:05:50.705Z,15.45
2022-12-12T17:08:18.340Z,15.18
2022-12-12T17:10:46.044Z,17.77
2022-12-12T17:13:17.887Z,15.90
2022-12-12T17:15:44.908Z,17.92
2022-12-12T17:18:11.827Z,16.25
2022-12-12T17:20:38.834Z,20.67
2022-12-12T17:23:30.079Z,13.73
2022-12-12T17:26:03.576Z,15.48
2022-12-12T17:28:31.743Z,12.63
2022-12-12T17:30:58.835Z,16.73
2022-12-12T17:33:26.138Z,18.83
2022-12-12T17:36:06.287Z,15.07
2022-12-12T17:38:33.674Z,13.07
2022-12-12T17:41:05.039Z,19.67
2022-12-12T17:43:32.095Z,29.75
2022-12-12T17:45:59.817Z,21.33
2022-12-12T17:48:33.191Z,20.25
2022-12-12T17:51:01.360Z,15.30
2022-12-12T17:53:32.514Z,17.60
2022-12-12T17:56:01.237Z,14.63
2022-12-12T17:58:38.478Z,14.98
2022-12-12T18:01:12.753Z,13.85
2022-12-12T18:03:40.320Z,12.43
2022-12-12T18:06:08.485Z,14.32
2022-12-12T18:08:36.972Z,14.85
2022-12-12T18:11:08.934Z,11.57
2022-12-12T18:13:36.265Z,16.10
2022-12-12T18:16:03.310Z,14.25
2022-12-12T18:18:30.300Z,14.98
2022-12-12T18:20:57.160Z,12.43
2022-12-12T18:23:24.158Z,16.23
2022-12-12T18:25:51.031Z,15.15
2022-12-12T18:28:18.127Z,17.75
2022-12-12T18:30:45.069Z,16.77
2022-12-12T18:33:12.059Z,18.02
2022-12-12T18:35:38.969Z,14.52
2022-12-12T18:38:06.642Z,17.30
2022-12-12T18:40:34.359Z,12.93
2022-12-12T18:43:01.379Z,19.60
2022-12-12T18:45:28.359Z,26.60
2022-12-12T18:47:55.877Z,24.88
2022-12-12T18:50:22.757Z,20.83
2022-12-12T18:52:49.830Z,19.35
2022-12-12T18:55:16.830Z,13.68
2022-12-12T18:57:43.851Z,22.17
2022-12-12T19:00:11.467Z,17.25
2022-12-12T19:02:40.627Z,16.30
2022-12-12T19:05:07.813Z,17.50
2022-12-12T19:07:34.777Z,15.95
2022-12-12T19:10:01.710Z,17.48
2022-12-12T19:12:28.847Z,18.08
2022-12-12T19:17:43.149Z,18.20
2022-12-12T19:20:10.822Z,24.08
2022-12-12T19:22:45.458Z,16.58
2022-12-12T19:25:18.817Z,15.63
2022-12-12T19:27:45.893Z,18.45
2022-12-12T19:30:13.942Z,16.40
2022-12-12T19:32:41.715Z,13.75
2022-12-12T19:35:08.776Z,14.20
2022-12-12T19:37:36.301Z,15.60
2022-12-12T19:40:03.453Z,12.88
2022-12-12T19:42:30.622Z,15.00
2022-12-12T19:44:57.519Z,16.77
2022-12-12T19:47:24.557Z,14.10
2022-12-12T19:49:51.665Z,16.45
2022-12-12T19:52:19.891Z,16.05
2022-12-12T19:54:47.152Z,15.15
2022-12-12T19:57:14.095Z,16.65
2022-12-12T19:59:41.175Z,15.57
2022-12-12T20:02:09.653Z,17.60
2022-12-12T20:04:38.523Z,17.95
2022-12-12T20:07:06.120Z,18.40
2022-12-12T20:09:34.936Z,21.40
2022-12-12T20:12:01.937Z,20.27
2022-12-12T20:14:30.525Z,16.30
2022-12-12T20:16:57.757Z,16.92
2022-12-12T20:19:29.092Z,14.00
2022-12-12T20:22:01.240Z,11.32
2022-12-12T20:24:29.224Z,13.95
2022-12-12T20:26:56.247Z,15.07
2022-12-12T20:29:23.594Z,13.95
2022-12-12T20:31:50.911Z,15.00
2022-12-12T20:34:19.086Z,14.95
2022-12-12T20:36:46.722Z,14.10
2022-12-12T20:39:22.362Z,13.38
2022-12-12T20:41:53.978Z,15.73
2022-12-12T20:44:21.100Z,15.52
2022-12-12T20:46:48.086Z,15.07
2022-12-12T20:49:17.600Z,12.38
2022-12-12T20:52:00.393Z,21.85
2022-12-12T20:54:28.545Z,12.48
2022-12-12T20:56:56.023Z,13.95
2022-12-12T20:59:23.948Z,16.10
2022-12-12T21:01:51.373Z,15.25
2022-12-12T21:04:18.555Z,13.40
2022-12-12T21:06:48.491Z,13.90
2022-12-12T21:09:24.859Z,13.23
2022-12-12T21:11:58.152Z,13.75
2022-12-12T21:14:26.781Z,13.93
2022-12-12T21:16:53.873Z,13.98
2022-12-12T21:19:23.793Z,17.67
2022-12-12T21:21:51.170Z,13.57
2022-12-12T21:24:18.110Z,19.10
2022-12-12T21:26:46.234Z,16.73
2022-12-12T21:29:13.293Z,16.63
2022-12-12T21:31:48.173Z,16.85
2022-12-12T21:34:18.419Z,13.55
2022-12-12T21:36:45.445Z,17.73
2022-12-12T21:39:12.389Z,20.80
2022-12-12T21:41:41.674Z,24.67
2022-12-12T21:44:08.770Z,31.17
2022-12-12T21:46:35.677Z,23.00
2022-12-12T21:49:21.615Z,24.05
2022-12-12T21:51:48.548Z,15.10
2022-12-12T21:54:15.686Z,15.80
2022-12-12T21:56:42.806Z,13.20
2022-12-12T21:59:10.840Z,15.55
2022-12-12T22:01:37.804Z,14.52
2022-12-12T22:04:04.907Z,13.55
2022-12-12T22:06:33.478Z,12.77
2022-12-12T22:09:01.152Z,19.02
2022-12-12T22:11:48.233Z,12.57
2022-12-12T22:14:17.456Z,12.85
2022-12-12T22:16:44.919Z,10.00
2022-12-12T22:19:12.678Z,12.27
2022-12-12T22:21:39.604Z,13.10
2022-12-12T22:24:07.076Z,13.48
2022-12-12T22:26:38.637Z,12.95
2022-12-12T22:29:07.144Z,14.32
2022-12-12T22:31:35.311Z,15.60
2022-12-12T22:34:04.366Z,11.30
2022-12-12T22:36:32.860Z,13.70
2022-12-12T22:39:00.139Z,12.65
2022-12-12T22:41:27.697Z,11.43
2022-12-12T22:43:55.650Z,14.38
2022-12-12T22:46:22.986Z,12.52
2022-12-12T22:48:50.043Z,13.27
2022-12-12T22:51:21.814Z,11.38
2022-12-12T22:53:48.742Z,13.05
2022-12-12T22:56:16.019Z,11.68
2022-12-12T22:58:43.046Z,12.35
2022-12-12T23:01:12.453Z,10.40
2022-12-12T23:03:39.409Z,9.82
2022-12-12T23:06:11.612Z,13.52
2022-12-12T23:08:38.565Z,17.27
2022-12-12T23:11:07.311Z,10.50
2022-12-12T23:13:34.666Z,10.60
2022-12-12T23:16:08.432Z,11.25
2022-12-12T23:18:37.147Z,9.77
2022-12-12T23:21:05.087Z,11.13
2022-12-12T23:23:32.077Z,11.70
2022-12-12T23:26:06.172Z,15.80
2022-12-12T23:28:34.491Z,13.98
2022-12-12T23:31:01.734Z,13.90
2022-12-12T23:33:28.747Z,13.90
2022-12-12T23:35:55.640Z,12.75
2022-12-12T23:38:22.602Z,12.80
2022-12-12T23:40:49.686Z,11.30
2022-12-12T23:43:16.663Z,14.10
2022-12-12T23:45:44.069Z,18.58
2022-12-12T23:48:11.079Z,12.30
2022-12-12T23:50:37.943Z,15.30
2022-12-12T23:53:10.334Z,13.23
2022-12-12T23:55:37.679Z,12.93
2022-12-12T23:58:04.662Z,15.07
